Time;durP1;ratioP1;P1;durP2;ratioP2;P2;SDS_P1;SDS_P2;PMS_P1;PMS_P2;Temp;Humidity;BMP_temperature;BMP_pressure;BME280_temperature;BME280_humidity;BME280_pressure;Samples;Min_cycle;Max_cycle;Signal;HPM_P1;HPM_P2
2023/07/26 00:02:04;;;;;;;34.45;20.98;;;16.00;99.90;;;;;;5012666;28;20030;-78
2023/07/26 00:04:29;;;;;;;41.97;22.52;;;16.00;99.90;;;;;;4999010;28;20081;-78
2023/07/26 00:06:55;;;;;;;36.90;22.42;;;16.00;99.90;;;;;;5012448;28;20045;-80
2023/07/26 00:09:21;;;;;;;34.05;19.70;;;16.00;99.90;;;;;;5011133;28;20014;-79
2023/07/26 00:11:47;;;;;;;41.63;20.48;;;15.90;99.90;;;;;;4997998;28;20025;-79
2023/07/26 00:14:13;;;;;;;38.83;21.48;;;15.90;99.90;;;;;;5010795;28;20075;-79
2023/07/26 00:16:39;;;;;;;36.70;21.05;;;15.90;99.90;;;;;;5012423;28;20030;-79
2023/07/26 00:19:05;;;;;;;41.95;21.17;;;15.90;99.90;;;;;;5010576;28;20102;-79
2023/07/26 00:21:32;;;;;;;47.53;22.02;;;15.90;99.90;;;;;;5012477;28;20092;-79
2023/07/26 00:23:58;;;;;;;94.63;22.20;;;15.80;99.90;;;;;;5010863;28;20022;-79
2023/07/26 00:26:25;;;;;;;40.47;20.67;;;15.80;99.90;;;;;;5011106;28;20104;-79
2023/07/26 00:28:51;;;;;;;52.70;21.23;;;15.80;99.90;;;;;;5073749;28;20025;-79
2023/07/26 00:31:17;;;;;;;41.42;18.98;;;15.90;99.90;;;;;;5010307;28;20022;-79
2023/07/26 00:33:43;;;;;;;94.47;18.50;;;15.80;99.90;;;;;;5010259;28;20065;-80
2023/07/26 00:36:08;;;;;;;29.10;14.20;;;15.80;99.90;;;;;;5010924;28;20026;-80
2023/07/26 00:38:34;;;;;;;24.98;15.23;;;15.80;99.90;;;;;;5010115;28;20033;-80
2023/07/26 00:41:00;;;;;;;30.58;16.83;;;15.80;99.90;;;;;;5009502;28;20045;-79
2023/07/26 00:43:25;;;;;;;30.98;17.70;;;15.80;99.90;;;;;;5010445;28;20022;-79
2023/07/26 00:45:52;;;;;;;37.33;19.90;;;15.80;99.90;;;;;;5010441;28;20026;-79
2023/07/26 00:48:18;;;;;;;36.45;16.15;;;15.80;99.90;;;;;;5010076;28;20022;-79
2023/07/26 00:50:45;;;;;;;55.25;18.35;;;15.80;99.90;;;;;;5009298;28;20118;-79
2023/07/26 00:53:13;;;;;;;82.13;20.63;;;15.80;99.90;;;;;;5026969;28;20046;-79
2023/07/26 00:55:39;;;;;;;37.35;15.73;;;15.80;99.90;;;;;;5026346;28;20018;-79
2023/07/26 00:58:04;;;;;;;41.03;16.98;;;15.70;99.90;;;;;;5015915;28;20024;-79
2023/07/26 01:00:30;;;;;;;30.23;16.48;;;15.70;99.90;;;;;;5023218;28;20044;-79
2023/07/26 01:02:56;;;;;;;33.80;17.90;;;15.70;99.90;;;;;;5011865;28;20018;-79
2023/07/26 01:05:26;;;;;;;33.25;16.42;;;15.70;99.90;;;;;;5011642;28;20097;-79
2023/07/26 01:08:03;;;;;;;26.40;13.50;;;15.70;99.90;;;;;;5011811;28;20029;-79
2023/07/26 01:10:50;;;;;;;25.45;13.07;;;15.70;99.90;;;;;;5020675;28;20022;-79
2023/07/26 01:13:28;;;;;;;18.52;13.07;;;15.60;99.90;;;;;;4998209;28;20487;-79
2023/07/26 01:15:54;;;;;;;23.20;12.68;;;15.60;99.90;;;;;;5010145;28;20018;-79
2023/07/26 01:18:20;;;;;;;22.80;14.10;;;15.60;99.90;;;;;;5010221;28;20033;-80
2023/07/26 01:20:45;;;;;;;20.67;12.60;;;15.60;99.90;;;;;;5010013;28;20026;-80
2023/07/26 01:23:11;;;;;;;22.92;14.23;;;15.60;99.90;;;;;;5010152;28;20108;-79
2023/07/26 01:25:36;;;;;;;20.23;13.00;;;15.60;99.90;;;;;;5016525;28;20021;-78
2023/07/26 01:28:02;;;;;;;21.08;13.75;;;15.70;99.90;;;;;;5012821;28;20030;-79
2023/07/26 01:30:30;;;;;;;24.08;15.30;;;15.70;99.90;;;;;;5000468;28;20026;-79
2023/07/26 01:32:59;;;;;;;23.88;16.05;;;15.70;99.90;;;;;;5011167;28;20033;-80
2023/07/26 01:35:26;;;;;;;26.10;18.85;;;15.80;99.90;;;;;;5009946;28;20014;-79
2023/07/26 01:37:54;;;;;;;30.27;19.65;;;15.80;99.90;;;;;;5009835;28;20493;-78
2023/07/26 01:40:21;;;;;;;24.88;19.17;;;15.80;99.90;;;;;;5011333;28;20022;-79
2023/07/26 01:42:47;;;;;;;32.25;21.20;;;15.90;99.90;;;;;;5009367;28;20036;-79
2023/07/26 01:45:13;;;;;;;27.55;21.02;;;15.90;99.90;;;;;;5009621;28;20475;-79
2023/07/26 01:47:38;;;;;;;26.48;20.92;;;16.00;99.90;;;;;;4996877;28;20018;-79
2023/07/26 01:50:05;;;;;;;25.48;18.20;;;16.00;99.90;;;;;;5009622;28;20411;-79
2023/07/26 01:52:31;;;;;;;21.48;14.05;;;16.10;99.90;;;;;;4997054;28;20466;-79
2023/07/26 01:54:57;;;;;;;18.02;14.68;;;16.10;99.90;;;;;;5030635;28;20104;-79
2023/07/26 01:57:25;;;;;;;18.05;12.18;;;16.00;99.90;;;;;;5020675;28;20026;-80
2023/07/26 01:59:53;;;;;;;19.88;12.88;;;15.90;99.90;;;;;;5013630;28;20049;-80
2023/07/26 02:02:20;;;;;;;20.88;12.98;;;15.90;99.90;;;;;;5022243;28;20028;-78
2023/07/26 02:04:46;;;;;;;20.23;14.30;;;15.90;99.90;;;;;;5010747;28;20086;-79
2023/07/26 02:07:12;;;;;;;21.17;14.75;;;15.90;99.90;;;;;;5009182;28;20114;-79
2023/07/26 02:09:38;;;;;;;26.98;17.45;;;15.90;99.90;;;;;;5014492;28;20063;-79
2023/07/26 02:12:04;;;;;;;22.48;16.63;;;16.00;99.90;;;;;;5017213;28;20025;-80
2023/07/26 02:14:30;;;;;;;22.23;15.60;;;16.00;99.90;;;;;;5008684;28;20030;-79
2023/07/26 02:16:56;;;;;;;24.27;15.63;;;16.00;99.90;;;;;;5010266;28;20026;-80
2023/07/26 02:19:22;;;;;;;26.30;15.10;;;16.00;99.90;;;;;;5009281;28;20501;-79
2023/07/26 02:21:47;;;;;;;24.17;16.05;;;16.00;99.90;;;;;;5010190;28;20071;-79
2023/07/26 02:24:13;;;;;;;19.73;15.43;;;15.90;99.90;;;;;;5010125;28;20026;-79
2023/07/26 02:26:39;;;;;;;21.17;15.48;;;15.90;99.90;;;;;;5015080;28;20423;-79
2023/07/26 02:29:05;;;;;;;25.13;16.55;;;15.90;99.90;;;;;;5018388;28;20018;-79
2023/07/26 02:31:30;;;;;;;25.83;17.30;;;15.90;99.90;;;;;;5008936;28;20084;-78
2023/07/26 02:33:56;;;;;;;23.17;16.70;;;15.90;99.90;;;;;;5009047;28;20482;-78
2023/07/26 02:36:22;;;;;;;24.45;17.58;;;15.90;99.90;;;;;;5008906;28;20117;-79
2023/07/26 02:38:47;;;;;;;29.90;17.52;;;15.90;99.90;;;;;;5008749;28;20106;-79
2023/07/26 02:41:13;;;;;;;24.65;17.25;;;15.90;99.90;;;;;;5008932;28;20053;-79
2023/07/26 02:43:39;;;;;;;29.02;18.90;;;15.90;99.90;;;;;;5008612;28;20490;-80
2023/07/26 02:46:04;;;;;;;27.15;17.48;;;15.90;99.90;;;;;;5008876;28;20055;-79
2023/07/26 02:48:30;;;;;;;20.95;15.05;;;15.90;99.90;;;;;;5009687;28;20539;-79
2023/07/26 02:50:55;;;;;;;24.98;16.80;;;15.90;99.90;;;;;;5003892;28;20037;-79
2023/07/26 02:53:21;;;;;;;21.90;16.00;;;15.90;99.90;;;;;;5001752;28;20085;-79
2023/07/26 02:55:47;;;;;;;21.42;15.40;;;16.00;99.90;;;;;;5009695;28;20033;-80
2023/07/26 02:58:12;;;;;;;20.73;15.60;;;15.90;99.90;;;;;;5008439;28;20022;-79
2023/07/26 03:00:38;;;;;;;20.38;15.25;;;16.00;99.90;;;;;;5011645;28;20022;-79
2023/07/26 03:03:03;;;;;;;23.40;16.30;;;15.90;99.90;;;;;;5008060;28;20423;-78
2023/07/26 03:05:30;;;;;;;21.70;16.10;;;15.90;99.90;;;;;;5005396;28;20036;-80
2023/07/26 03:07:56;;;;;;;21.10;15.80;;;15.90;99.90;;;;;;5008671;28;20463;-78
2023/07/26 03:10:21;;;;;;;21.40;15.63;;;16.00;99.90;;;;;;5009448;28;20105;-80
2023/07/26 03:12:47;;;;;;;16.70;13.98;;;15.90;99.90;;;;;;5008168;28;20087;-80
2023/07/26 03:15:12;;;;;;;22.15;15.52;;;16.00;99.90;;;;;;5008406;28;20048;-80
2023/07/26 03:17:38;;;;;;;17.50;14.30;;;15.90;99.90;;;;;;5009829;28;20049;-80
2023/07/26 03:20:04;;;;;;;21.02;13.63;;;16.00;99.90;;;;;;5009382;28;20486;-79
2023/07/26 03:22:30;;;;;;;21.30;14.88;;;15.90;99.90;;;;;;5009744;28;20013;-79
2023/07/26 03:24:56;;;;;;;21.67;14.65;;;15.90;99.90;;;;;;5008293;28;20387;-79
2023/07/26 03:27:22;;;;;;;24.15;16.50;;;15.90;99.90;;;;;;5009684;28;20026;-79
2023/07/26 03:29:47;;;;;;;29.08;18.17;;;15.90;99.90;;;;;;5008189;28;20022;-79
2023/07/26 03:32:14;;;;;;;21.10;16.42;;;15.90;99.90;;;;;;5009628;28;20090;-79
2023/07/26 03:34:39;;;;;;;18.73;15.55;;;15.90;99.90;;;;;;5007915;28;20078;-79
2023/07/26 03:37:05;;;;;;;17.52;15.05;;;16.00;99.90;;;;;;4992768;28;20022;-80
2023/07/26 03:39:30;;;;;;;19.83;14.57;;;16.00;99.90;;;;;;5009179;28;20033;-80
2023/07/26 03:41:56;;;;;;;21.00;16.40;;;16.00;99.90;;;;;;5009083;28;20167;-79
2023/07/26 03:44:22;;;;;;;19.55;15.05;;;15.90;99.90;;;;;;5007907;28;20026;-78
2023/07/26 03:46:47;;;;;;;18.35;13.93;;;16.00;99.90;;;;;;5008174;28;20026;-80
2023/07/26 03:49:13;;;;;;;15.90;13.75;;;16.00;99.90;;;;;;5009137;28;21421;-79
2023/07/26 03:51:38;;;;;;;21.83;15.27;;;16.00;99.90;;;;;;5008290;28;20025;-79
2023/07/26 03:54:04;;;;;;;22.65;15.75;;;16.00;99.90;;;;;;5007611;28;20176;-79
2023/07/26 03:56:29;;;;;;;21.67;13.13;;;16.00;99.90;;;;;;5009360;28;20026;-80
2023/07/26 03:58:55;;;;;;;18.70;12.30;;;15.80;99.90;;;;;;5007875;28;20033;-79
2023/07/26 04:01:20;;;;;;;19.27;14.57;;;15.80;99.90;;;;;;5018562;28;20493;-79
2023/07/26 04:03:46;;;;;;;15.40;12.55;;;15.70;99.90;;;;;;5010926;28;20605;-79
2023/07/26 04:06:12;;;;;;;20.65;14.13;;;15.70;99.90;;;;;;5007912;28;20570;-79
2023/07/26 04:08:39;;;;;;;19.13;14.15;;;15.70;99.90;;;;;;5011206;28;20026;-80
2023/07/26 04:11:05;;;;;;;17.83;14.77;;;15.80;99.90;;;;;;5011457;28;20034;-78
2023/07/26 04:13:31;;;;;;;19.98;15.32;;;15.80;99.90;;;;;;5012364;28;20045;-79
2023/07/26 04:15:57;;;;;;;19.98;14.77;;;15.80;99.90;;;;;;5012540;28;20022;-79
2023/07/26 04:18:22;;;;;;;18.88;14.10;;;15.90;99.90;;;;;;5012122;28;20025;-80
2023/07/26 04:20:48;;;;;;;21.67;15.07;;;15.80;99.90;;;;;;5011166;28;20478;-80
2023/07/26 04:23:13;;;;;;;22.90;15.98;;;15.80;99.90;;;;;;5010828;28;20113;-79
2023/07/26 04:25:39;;;;;;;24.65;16.52;;;15.90;99.90;;;;;;5012383;28;20034;-79
2023/07/26 04:28:06;;;;;;;23.52;16.95;;;15.90;99.90;;;;;;5010616;28;20018;-80
2023/07/26 04:30:31;;;;;;;26.15;17.02;;;15.80;99.90;;;;;;5010910;28;20026;-79
2023/07/26 04:32:57;;;;;;;25.58;18.45;;;15.90;99.90;;;;;;5010727;28;20018;-79
2023/07/26 04:35:22;;;;;;;31.20;18.10;;;15.90;99.90;;;;;;5012133;28;20079;-79
2023/07/26 04:37:48;;;;;;;36.15;18.33;;;15.90;99.90;;;;;;5009860;28;20022;-80
2023/07/26 04:40:13;;;;;;;31.80;18.67;;;15.80;99.90;;;;;;5011924;28;20029;-79
2023/07/26 04:42:39;;;;;;;30.33;18.25;;;15.80;99.90;;;;;;5012300;28;20101;-79
2023/07/26 04:45:05;;;;;;;31.40;17.45;;;15.80;99.90;;;;;;5012042;28;20442;-79
2023/07/26 04:47:33;;;;;;;60.17;19.13;;;15.80;99.90;;;;;;5005583;28;20467;-79
2023/07/26 04:49:58;;;;;;;34.88;15.55;;;15.80;99.90;;;;;;5003158;28;20025;-80
2023/07/26 04:52:24;;;;;;;26.15;17.05;;;15.70;99.90;;;;;;5009759;28;20414;-79
2023/07/26 04:54:50;;;;;;;33.08;17.67;;;15.70;99.90;;;;;;5009978;28;20044;-80
2023/07/26 04:57:15;;;;;;;28.70;16.90;;;15.70;99.90;;;;;;5009384;28;20022;-80
2023/07/26 04:59:41;;;;;;;36.90;15.70;;;15.70;99.90;;;;;;5000670;28;20475;-80
2023/07/26 05:02:09;;;;;;;39.13;18.85;;;15.70;99.90;;;;;;5010914;28;20067;-79
2023/07/26 05:04:35;;;;;;;31.52;17.70;;;15.70;99.90;;;;;;5000536;28;20041;-78
2023/07/26 05:07:00;;;;;;;37.83;17.70;;;15.70;99.90;;;;;;4998745;28;20034;-78
2023/07/26 05:09:26;;;;;;;87.80;21.48;;;15.70;99.90;;;;;;5011499;28;20018;-78
2023/07/26 05:11:52;;;;;;;62.92;20.88;;;15.70;99.90;;;;;;4996794;28;20030;-79
2023/07/26 05:14:17;;;;;;;60.05;20.75;;;15.60;99.90;;;;;;5011455;28;20041;-78
2023/07/26 05:16:43;;;;;;;46.55;20.25;;;15.60;99.90;;;;;;5007828;28;20033;-79
2023/07/26 05:19:09;;;;;;;64.70;21.08;;;15.60;99.90;;;;;;5008349;28;20466;-80
2023/07/26 05:21:34;;;;;;;54.95;20.67;;;15.60;99.90;;;;;;5007121;28;20097;-79
2023/07/26 05:24:00;;;;;;;42.55;20.33;;;15.50;99.90;;;;;;5005317;28;20034;-80
2023/07/26 05:26:26;;;;;;;36.17;19.30;;;15.50;99.90;;;;;;4996945;28;20487;-79
2023/07/26 05:28:51;;;;;;;36.17;18.85;;;15.50;99.90;;;;;;4998327;28;20022;-79
2023/07/26 05:31:17;;;;;;;45.05;21.02;;;15.50;99.90;;;;;;4996737;28;20053;-79
2023/07/26 05:33:43;;;;;;;35.03;19.33;;;15.50;99.90;;;;;;5000092;28;20034;-79
2023/07/26 05:36:08;;;;;;;39.50;20.40;;;15.50;99.90;;;;;;4996029;28;20080;-80
2023/07/26 05:38:34;;;;;;;31.95;18.85;;;15.60;99.90;;;;;;5009013;28;20022;-79
2023/07/26 05:41:04;;;;;;;29.90;17.70;;;15.60;99.90;;;;;;5011340;28;20045;-79
2023/07/26 05:43:30;;;;;;;32.55;18.48;;;15.60;99.90;;;;;;5011179;28;20109;-79
2023/07/26 05:45:55;;;;;;;27.13;17.58;;;15.60;99.90;;;;;;5011473;28;20125;-78
2023/07/26 05:48:21;;;;;;;22.48;16.85;;;15.60;99.90;;;;;;5009810;28;20038;-78
2023/07/26 05:50:48;;;;;;;27.63;19.58;;;15.70;99.90;;;;;;5010017;28;20108;-78
2023/07/26 05:53:14;;;;;;;22.95;17.65;;;15.70;99.90;;;;;;5020647;28;20038;-78
2023/07/26 05:55:39;;;;;;;23.45;17.85;;;15.70;99.90;;;;;;5022633;28;20078;-78
2023/07/26 05:58:05;;;;;;;18.25;13.52;;;15.70;99.90;;;;;;5026878;28;20021;-79
2023/07/26 06:00:31;;;;;;;11.13;8.13;;;15.70;99.90;;;;;;5024308;28;20066;-78
2023/07/26 06:02:57;;;;;;;12.80;8.82;;;15.70;99.90;;;;;;5018843;28;20033;-78
2023/07/26 06:05:23;;;;;;;9.88;8.57;;;15.70;99.90;;;;;;5006343;28;20026;-78
2023/07/26 06:07:50;;;;;;;9.07;7.53;;;15.70;99.90;;;;;;5005799;28;20078;-80
2023/07/26 06:10:16;;;;;;;8.93;8.07;;;15.70;99.90;;;;;;4995996;28;20022;-80
2023/07/26 06:12:41;;;;;;;16.38;8.63;;;15.70;99.90;;;;;;5005466;28;20025;-79
2023/07/26 06:15:07;;;;;;;9.30;8.30;;;15.70;99.90;;;;;;4996662;28;20030;-78
2023/07/26 06:17:33;;;;;;;11.73;8.23;;;15.80;99.90;;;;;;5003624;28;20018;-78
2023/07/26 06:19:59;;;;;;;8.98;7.10;;;15.80;99.90;;;;;;5010076;28;20492;-78
2023/07/26 06:22:25;;;;;;;7.38;6.45;;;15.80;99.90;;;;;;5008794;28;20021;-78
2023/07/26 06:24:50;;;;;;;7.97;7.03;;;15.70;99.90;;;;;;5007072;28;20042;-78
2023/07/26 06:27:23;;;;;;;10.40;7.13;;;15.70;99.90;;;;;;5006195;28;20109;-78
2023/07/26 06:29:48;;;;;;;;;;;15.70;99.90;;;;;;5001588;28;20037;-78
2023/07/26 06:32:14;;;;;;;11.85;9.32;;;15.70;99.90;;;;;;5004740;28;19910;-79
2023/07/26 06:34:40;;;;;;;10.98;9.68;;;15.70;99.90;;;;;;5001399;28;20099;-78
2023/07/26 06:37:05;;;;;;;12.55;10.75;;;15.70;99.90;;;;;;5006735;28;20018;-78
2023/07/26 06:39:31;;;;;;;17.00;11.40;;;15.70;99.90;;;;;;5004024;28;20459;-78
2023/07/26 06:41:56;;;;;;;18.48;12.45;;;15.70;99.90;;;;;;5004886;28;20086;-78
2023/07/26 06:44:22;;;;;;;13.25;11.38;;;15.70;99.90;;;;;;5005653;28;20386;-78
2023/07/26 06:46:48;;;;;;;16.48;13.68;;;15.70;99.90;;;;;;4995348;28;20046;-78
2023/07/26 06:49:14;;;;;;;13.02;11.07;;;15.70;99.90;;;;;;5007029;28;20018;-78
2023/07/26 06:51:39;;;;;;;14.75;12.10;;;15.60;99.90;;;;;;5008411;28;20025;-78
2023/07/26 06:54:05;;;;;;;13.73;11.98;;;15.70;99.90;;;;;;5005327;28;20058;-78
2023/07/26 06:56:30;;;;;;;17.77;13.15;;;15.50;99.90;;;;;;5006418;28;20089;-78
2023/07/26 06:58:56;;;;;;;14.52;11.55;;;15.60;99.90;;;;;;5001876;28;20040;-79
2023/07/26 07:01:22;;;;;;;14.13;11.25;;;15.50;99.90;;;;;;4999417;28;20037;-78
2023/07/26 07:03:47;;;;;;;15.38;11.07;;;15.50;99.90;;;;;;4991236;28;20064;-78
2023/07/26 07:06:14;;;;;;;12.88;10.43;;;15.60;99.90;;;;;;4987402;28;20027;-78
2023/07/26 07:08:40;;;;;;;14.40;11.43;;;15.60;99.90;;;;;;4999694;28;20540;-78
2023/07/26 07:11:06;;;;;;;13.02;10.50;;;15.50;99.90;;;;;;4997786;28;20026;-78
2023/07/26 07:13:36;;;;;;;15.32;11.82;;;15.50;99.90;;;;;;4988475;28;20050;-79
2023/07/26 07:16:03;;;;;;;15.05;11.43;;;15.50;99.90;;;;;;5004391;28;20032;-79
2023/07/26 07:18:30;;;;;;;12.70;10.48;;;15.50;99.90;;;;;;4992916;28;20029;-80
2023/07/26 07:20:58;;;;;;;10.90;9.60;;;15.40;99.90;;;;;;4997140;28;20446;-80
2023/07/26 07:23:24;;;;;;;11.02;8.65;;;15.30;99.90;;;;;;4994203;28;20119;-79
2023/07/26 07:25:50;;;;;;;11.90;10.55;;;15.30;99.90;;;;;;4995448;28;20033;-79
2023/07/26 07:28:15;;;;;;;11.73;9.55;;;15.30;99.90;;;;;;5000880;28;20042;-79
2023/07/26 07:30:41;;;;;;;17.85;11.65;;;15.20;99.90;;;;;;5003775;28;20398;-80
2023/07/26 07:33:07;;;;;;;14.40;9.10;;;15.20;99.90;;;;;;4993074;28;20050;-79
2023/07/26 07:35:33;;;;;;;9.48;8.55;;;15.20;99.90;;;;;;4994208;28;20383;-78
2023/07/26 07:38:04;;;;;;;12.00;8.15;;;15.20;99.90;;;;;;5005038;28;20038;-79
2023/07/26 07:40:30;;;;;;;9.95;8.73;;;15.10;99.90;;;;;;4998000;28;20015;-79
2023/07/26 07:42:55;;;;;;;9.77;7.22;;;15.10;99.90;;;;;;5001254;28;20025;-79
2023/07/26 07:45:21;;;;;;;8.88;7.70;;;15.00;99.90;;;;;;4998738;28;20022;-78
2023/07/26 07:47:46;;;;;;;7.78;6.85;;;15.00;99.90;;;;;;5004799;28;20022;-78
2023/07/26 07:50:12;;;;;;;7.25;6.55;;;15.00;99.90;;;;;;5004434;28;20483;-78
2023/07/26 07:52:38;;;;;;;8.25;7.13;;;15.00;99.90;;;;;;4995700;28;20054;-78
2023/07/26 07:55:04;;;;;;;7.60;6.82;;;14.90;99.90;;;;;;5001569;28;20046;-79
2023/07/26 07:57:30;;;;;;;8.55;7.65;;;15.00;99.90;;;;;;5007373;28;20045;-78
2023/07/26 07:59:55;;;;;;;10.27;9.27;;;14.90;99.90;;;;;;5002749;28;20045;-78
2023/07/26 08:02:21;;;;;;;12.07;10.88;;;14.90;99.90;;;;;;5006166;28;20242;-78
2023/07/26 08:04:47;;;;;;;12.63;11.52;;;14.90;99.90;;;;;;4991281;28;20551;-78
2023/07/26 08:07:12;;;;;;;10.85;9.85;;;14.90;99.90;;;;;;4998324;28;20467;-78
2023/07/26 08:09:40;;;;;;;11.98;10.88;;;14.80;99.90;;;;;;4991856;28;20094;-78
2023/07/26 08:12:06;;;;;;;13.25;11.95;;;14.90;99.90;;;;;;4995673;28;20030;-78
2023/07/26 08:14:32;;;;;;;13.40;12.02;;;14.80;99.90;;;;;;4997466;28;20142;-78
2023/07/26 08:16:57;;;;;;;14.20;12.80;;;14.70;99.90;;;;;;5007068;28;20055;-78
2023/07/26 08:19:24;;;;;;;14.02;11.90;;;14.60;99.90;;;;;;5008362;28;20079;-79
2023/07/26 08:21:49;;;;;;;12.93;11.73;;;14.60;99.90;;;;;;5007078;28;20029;-78
2023/07/26 08:24:15;;;;;;;14.02;11.68;;;14.70;99.90;;;;;;4995650;28;20022;-78
2023/07/26 08:26:40;;;;;;;13.48;12.13;;;14.70;99.90;;;;;;4994536;28;20433;-78
2023/07/26 08:29:06;;;;;;;10.98;10.05;;;14.80;99.90;;;;;;4992458;28;20034;-78
2023/07/26 08:31:32;;;;;;;12.88;11.57;;;14.70;99.90;;;;;;4994046;28;20038;-78
2023/07/26 08:33:57;;;;;;;12.73;11.15;;;14.70;99.90;;;;;;5000082;28;20030;-79
2023/07/26 08:36:24;;;;;;;10.13;8.60;;;14.70;99.90;;;;;;4992702;28;20030;-78
2023/07/26 08:38:49;;;;;;;9.52;8.60;;;14.60;99.90;;;;;;5008816;28;20017;-79
2023/07/26 08:41:15;;;;;;;9.77;8.90;;;14.60;99.90;;;;;;4995932;28;20083;-78
2023/07/26 08:43:44;;;;;;;9.77;8.90;;;14.60;99.90;;;;;;4997333;28;20109;-79
2023/07/26 08:46:11;;;;;;;10.05;8.75;;;14.60;99.90;;;;;;4992945;28;20034;-79
2023/07/26 08:48:37;;;;;;;9.02;8.13;;;14.60;99.90;;;;;;4990089;28;20030;-78
2023/07/26 08:51:06;;;;;;;9.40;8.60;;;14.60;99.90;;;;;;4996356;28;20407;-78
2023/07/26 08:53:34;;;;;;;10.48;9.48;;;14.60;99.90;;;;;;4992726;28;20058;-79
2023/07/26 08:56:00;;;;;;;8.02;7.30;;;14.60;99.90;;;;;;4993240;28;20535;-79
2023/07/26 08:58:26;;;;;;;9.70;8.45;;;14.60;99.90;;;;;;4997787;28;20141;-79
2023/07/26 09:00:52;;;;;;;9.25;8.32;;;14.70;99.90;;;;;;4992301;28;20015;-78
2023/07/26 09:03:18;;;;;;;6.40;5.80;;;14.80;99.90;;;;;;4994497;28;20049;-79
2023/07/26 09:05:45;;;;;;;5.90;5.38;;;14.70;99.90;;;;;;4991869;28;20104;-78
2023/07/26 09:08:11;;;;;;;5.90;5.40;;;14.70;99.90;;;;;;4991630;28;20023;-78
2023/07/26 09:10:38;;;;;;;5.30;4.70;;;14.70;99.90;;;;;;4991918;28;20105;-79
2023/07/26 09:13:12;;;;;;;4.30;3.90;;;14.80;99.90;;;;;;4994357;28;20028;-79
2023/07/26 09:15:39;;;;;;;4.93;3.95;;;14.70;99.90;;;;;;4993745;28;20048;-78
2023/07/26 09:18:05;;;;;;;4.03;3.67;;;14.70;99.90;;;;;;4994609;28;20019;-78
2023/07/26 09:20:32;;;;;;;3.78;3.50;;;14.70;99.90;;;;;;4993411;28;20027;-78
2023/07/26 09:23:16;;;;;;;3.60;3.30;;;14.60;99.90;;;;;;4995928;28;20038;-78
2023/07/26 09:25:45;;;;;;;3.85;3.55;;;14.60;99.90;;;;;;4997260;28;20023;-78
2023/07/26 09:28:15;;;;;;;5.25;4.85;;;14.50;99.90;;;;;;4994658;28;20486;-78
2023/07/26 09:30:45;;;;;;;5.72;4.72;;;14.30;99.90;;;;;;4991329;28;20071;-78
2023/07/26 09:33:11;;;;;;;5.20;4.65;;;14.20;99.90;;;;;;4994080;28;20066;-78
2023/07/26 09:35:52;;;;;;;5.55;4.90;;;14.20;99.90;;;;;;4993193;28;20023;-78
2023/07/26 09:38:23;;;;;;;6.95;5.15;;;14.10;99.90;;;;;;4993189;28;20105;-77
2023/07/26 09:40:49;;;;;;;5.53;5.03;;;14.10;99.90;;;;;;4992032;28;20417;-77
2023/07/26 09:43:31;;;;;;;5.32;4.82;;;14.00;99.90;;;;;;4989787;28;20018;-78
2023/07/26 09:46:02;;;;;;;6.30;5.80;;;14.00;99.90;;;;;;4992599;28;20030;-78
2023/07/26 09:48:27;;;;;;;5.35;4.95;;;14.10;99.90;;;;;;4987944;28;20018;-77
2023/07/26 09:50:55;;;;;;;4.10;3.80;;;14.10;99.90;;;;;;4995953;28;20489;-78
2023/07/26 09:53:25;;;;;;;4.30;3.88;;;14.00;99.90;;;;;;5002266;28;20045;-78
2023/07/26 09:55:51;;;;;;;3.80;3.50;;;14.00;99.90;;;;;;4994057;28;20491;-79
2023/07/26 09:58:18;;;;;;;4.13;3.72;;;13.90;99.90;;;;;;5002991;28;20058;-78
2023/07/26 10:00:48;;;;;;;3.75;3.33;;;13.60;99.90;;;;;;4997380;28;20018;-79
2023/07/26 10:03:18;;;;;;;4.63;3.30;;;13.50;99.90;;;;;;5005608;28;20021;-78
2023/07/26 10:05:46;;;;;;;4.30;3.90;;;13.30;99.90;;;;;;5002927;28;20124;-78
2023/07/26 10:08:12;;;;;;;5.55;3.78;;;13.10;99.90;;;;;;5008055;28;20026;-78
2023/07/26 10:10:40;;;;;;;6.43;4.47;;;13.00;99.90;;;;;;5002552;28;20058;-78
2023/07/26 10:13:08;;;;;;;5.68;4.07;;;12.80;99.90;;;;;;5002623;28;20022;-78
2023/07/26 10:15:36;;;;;;;6.03;4.93;;;12.80;99.90;;;;;;4993049;28;20037;-78
2023/07/26 10:18:02;;;;;;;5.05;4.55;;;12.70;99.90;;;;;;5009101;28;20672;-79
2023/07/26 10:20:31;;;;;;;5.75;5.15;;;12.70;99.90;;;;;;5003028;28;20026;-79
2023/07/26 10:23:03;;;;;;;6.40;5.07;;;12.60;99.90;;;;;;4997511;28;20474;-79
2023/07/26 10:25:29;;;;;;;;;;;12.60;99.90;;;;;;5002256;28;20030;-79
2023/07/26 10:27:56;;;;;;;5.72;5.10;;;12.60;99.90;;;;;;4988419;28;20351;-80
2023/07/26 10:30:21;;;;;;;6.85;5.03;;;12.50;99.90;;;;;;4993061;28;20019;-78
2023/07/26 10:32:50;;;;;;;5.13;4.63;;;12.50;99.90;;;;;;5003783;28;20093;-79
2023/07/26 10:35:33;;;;;;;6.15;4.80;;;12.60;99.90;;;;;;4991998;28;20034;-79
2023/07/26 10:38:02;;;;;;;7.53;4.72;;;12.60;99.90;;;;;;4996061;28;20920;-78
2023/07/26 10:40:33;;;;;;;4.75;4.25;;;12.50;99.90;;;;;;5000949;28;20579;-79
2023/07/26 10:43:14;;;;;;;7.78;4.65;;;12.60;99.90;;;;;;5004915;28;20033;-79
2023/07/26 10:45:43;;;;;;;4.63;3.83;;;12.60;99.90;;;;;;5002437;28;20026;-80
2023/07/26 10:48:34;;;;;;;5.45;4.38;;;12.60;99.90;;;;;;5008259;28;20026;-79
2023/07/26 10:51:19;;;;;;;6.13;4.03;;;12.70;99.90;;;;;;5006411;28;20025;-79
2023/07/26 10:53:45;;;;;;;6.65;3.83;;;12.70;99.90;;;;;;4988866;28;20111;-79
2023/07/26 10:56:18;;;;;;;6.88;4.03;;;12.60;99.90;;;;;;4996874;28;20026;-80
2023/07/26 10:58:59;;;;;;;;;;;12.60;99.90;;;;;;5003055;28;20035;-79
2023/07/26 11:01:46;;;;;;;4.85;4.30;;;12.60;99.90;;;;;;5004996;28;19909;-79
2023/07/26 11:04:14;;;;;;;4.28;3.75;;;12.70;99.90;;;;;;5003033;28;20040;-79
2023/07/26 11:06:55;;;;;;;4.10;3.67;;;12.70;99.90;;;;;;5003471;28;20547;-79
2023/07/26 11:09:31;;;;;;;4.55;3.50;;;12.70;99.90;;;;;;5004567;28;20049;-79
2023/07/26 11:12:02;;;;;;;4.80;3.47;;;12.70;99.90;;;;;;4995621;28;20030;-79
2023/07/26 11:14:32;;;;;;;3.95;3.30;;;12.60;99.90;;;;;;4997696;28;20042;-79
2023/07/26 11:17:01;;;;;;;3.53;3.13;;;12.60;99.90;;;;;;5006411;28;20109;-79
2023/07/26 11:19:29;;;;;;;6.38;3.42;;;12.50;99.90;;;;;;5000545;28;20034;-78
2023/07/26 11:22:04;;;;;;;3.92;3.35;;;12.50;99.90;;;;;;4997011;28;20432;-78
2023/07/26 11:24:30;;;;;;;3.17;2.78;;;12.50;99.90;;;;;;5003391;28;20090;-78
2023/07/26 11:27:02;;;;;;;3.15;2.95;;;12.50;99.90;;;;;;5004676;28;20022;-78
2023/07/26 11:29:28;;;;;;;2.88;2.63;;;12.40;99.90;;;;;;5009100;28;20022;-78
2023/07/26 11:31:53;;;;;;;2.53;2.03;;;12.50;99.90;;;;;;4993479;28;20072;-78
2023/07/26 11:34:19;;;;;;;2.20;2.10;;;12.30;99.90;;;;;;5001473;28;20030;-79
2023/07/26 11:36:45;;;;;;;3.42;2.67;;;12.30;99.90;;;;;;5005155;28;20026;-78
2023/07/26 11:39:22;;;;;;;3.13;2.47;;;12.20;99.90;;;;;;4992381;28;20405;-79
2023/07/26 11:41:49;;;;;;;3.67;2.88;;;12.20;99.90;;;;;;5001190;28;20045;-79
2023/07/26 11:44:15;;;;;;;2.63;2.42;;;12.20;99.90;;;;;;5009156;28;20056;-79
2023/07/26 11:46:43;;;;;;;3.50;3.17;;;12.20;99.90;;;;;;5000216;28;20027;-79
2023/07/26 11:49:11;;;;;;;4.85;3.13;;;12.20;99.90;;;;;;5043916;28;20026;-79
2023/07/26 11:51:37;;;;;;;5.18;3.10;;;12.20;99.90;;;;;;4999715;28;20026;-79
2023/07/26 11:54:06;;;;;;;4.68;3.72;;;12.10;99.90;;;;;;5001969;28;20482;-78
2023/07/26 11:56:33;;;;;;;3.35;3.03;;;12.20;99.90;;;;;;4998889;28;20030;-79
2023/07/26 11:58:59;;;;;;;7.20;3.13;;;12.20;99.90;;;;;;5000126;28;20075;-79
2023/07/26 12:01:26;;;;;;;3.00;2.78;;;12.10;99.90;;;;;;5004971;28;20021;-78
2023/07/26 12:03:51;;;;;;;6.05;2.72;;;12.20;99.90;;;;;;5005115;28;20026;-79
2023/07/26 12:06:20;;;;;;;5.15;2.28;;;12.20;99.90;;;;;;5004870;28;20044;-79
2023/07/26 12:08:49;;;;;;;3.30;3.00;;;12.30;99.90;;;;;;4994742;28;20399;-80
2023/07/26 12:11:18;;;;;;;4.53;2.70;;;12.30;99.90;;;;;;4991871;28;20373;-79
2023/07/26 12:13:45;;;;;;;2.25;2.05;;;12.30;99.90;;;;;;4992087;28;20158;-80
2023/07/26 12:16:11;;;;;;;3.55;2.33;;;12.20;99.90;;;;;;4999376;28;20026;-79
2023/07/26 12:18:49;;;;;;;3.88;2.17;;;12.30;99.90;;;;;;4999613;28;20079;-79
2023/07/26 12:21:15;;;;;;;3.63;1.95;;;12.30;99.90;;;;;;5004882;28;20029;-78
2023/07/26 12:23:53;;;;;;;4.45;2.85;;;12.30;99.90;;;;;;4995568;28;20026;-78
2023/07/26 12:26:23;;;;;;;6.07;2.30;;;12.30;99.90;;;;;;5000422;28;20022;-78
2023/07/26 12:28:50;;;;;;;3.25;2.15;;;12.20;99.90;;;;;;4992916;28;20053;-79
2023/07/26 12:31:18;;;;;;;5.18;2.38;;;12.20;99.90;;;;;;5006540;28;20022;-79
2023/07/26 12:34:07;;;;;;;3.42;2.75;;;12.20;99.90;;;;;;5015845;28;20038;-78
2023/07/26 12:36:41;;;;;;;2.92;2.72;;;12.20;99.90;;;;;;5004425;28;20113;-77